Time;durP1;ratioP1;P1;durP2;ratioP2;P2;SDS_P1;SDS_P2;PMS_P1;PMS_P2;Temp;Humidity;BMP_temperature;BMP_pressure;BME280_temperature;BME280_humidity;BME280_pressure;Samples;Min_cycle;Max_cycle;Signal;HPM_P1;HPM_P2
2023/05/18 00:01:43;;;;;;;;;1.00;1.00;;;;;18.83;55.37;100330.25;146619;613;47014;-72
2023/05/18 00:04:38;;;;;;;;;2.00;1.00;;;;;18.78;55.52;100329.31;146625;585;46010;-74
2023/05/18 00:07:33;;;;;;;;;1.33;1.00;;;;;18.67;55.27;100323.91;146620;597;47012;-73
2023/05/18 00:10:30;;;;;;;;;2.00;2.00;;;;;18.61;56.51;100329.09;146622;582;46020;-74
2023/05/18 00:13:43;;;;;;;;;2.33;2.33;;;;;18.54;55.24;100335.13;146620;566;46013;-74
2023/05/18 00:16:52;;;;;;;;;1.00;1.00;;;;;18.44;57.17;100335.03;146622;666;46020;-77
2023/05/18 00:19:50;;;;;;;;;0.33;0.00;;;;;18.40;56.58;100342.81;146617;639;46016;-78
2023/05/18 00:22:59;;;;;;;;;2.00;2.00;;;;;18.39;56.06;100341.06;146623;567;46021;-76
2023/05/18 00:26:01;;;;;;;;;;;;;;;;;;;;;
2023/05/18 00:28:54;;;;;;;;;1.00;1.00;;;;;18.31;57.21;100353.19;146625;576;46012;-77
2023/05/18 00:31:45;;;;;;;;;0.00;0.00;;;;;18.28;57.59;100354.03;146620;575;46035;-76
2023/05/18 00:34:39;;;;;;;;;1.00;1.00;;;;;18.17;57.63;100358.25;146622;563;46018;-77
2023/05/18 00:37:31;;;;;;;;;1.00;1.00;;;;;18.06;57.73;100360.72;146618;608;46014;-75
2023/05/18 00:40:36;;;;;;;;;2.00;2.00;;;;;16.62;57.00;100127.72;146621;628;46020;-76
2023/05/18 00:43:32;;;;;;;;;2.33;2.33;;;;;17.91;57.17;100356.13;146619;627;47013;-75
2023/05/18 00:46:26;;;;;;;;;1.33;1.33;;;;;17.81;58.19;100351.59;146624;611;46010;-75
2023/05/18 00:49:24;;;;;;;;;1.00;1.00;;;;;17.70;58.34;100355.75;146621;640;46015;-75
2023/05/18 00:52:20;;;;;;;;;1.00;1.00;;;;;17.59;58.95;100368.66;146626;626;45021;-76
2023/05/18 00:55:22;;;;;;;;;2.00;2.00;;;;;17.50;59.02;100361.53;146617;590;47016;-76
2023/05/18 00:58:18;;;;;;;;;2.33;1.33;;;;;17.39;59.86;100359.59;146624;585;46012;-75
2023/05/18 01:01:11;;;;;;;;;2.00;2.00;;;;;17.25;59.30;100360.22;146620;622;46918;-75
2023/05/18 01:04:10;;;;;;;;;2.00;2.00;;;;;17.19;59.62;100367.94;146621;564;46013;-78
2023/05/18 01:07:07;;;;;;;;;3.00;2.00;;;;;17.19;59.62;100372.31;146616;615;47016;-77
2023/05/18 01:10:16;;;;;;;;;1.33;1.00;;;;;17.24;59.10;100373.28;146622;569;46020;-74
2023/05/18 01:13:54;;;;;;;;;;;;;;;;;;;;;
2023/05/18 01:17:32;;;;;;;;;1.67;1.67;;;;;15.98;57.97;100156.19;146623;581;47010;-74
2023/05/18 01:20:38;;;;;;;;;3.00;1.50;;;;;17.25;58.29;100370.69;146618;636;46017;-73
2023/05/18 01:24:09;;;;;;;;;0.33;0.33;;;;;15.75;57.83;100110.38;146622;595;46020;-71
2023/05/18 01:27:08;;;;;;;;;2.00;2.00;;;;;17.13;58.95;100359.09;146620;583;46033;-74
2023/05/18 01:30:02;;;;;;;;;1.33;1.33;;;;;17.05;59.26;100357.22;146624;608;46020;-75
2023/05/18 01:33:01;;;;;;;;;2.00;1.00;;;;;16.97;58.76;100358.81;146620;616;46012;-76
2023/05/18 01:35:53;;;;;;;;;0.00;0.00;;;;;16.93;60.04;100359.59;146625;602;46012;-76
2023/05/18 01:38:46;;;;;;;;;3.67;1.33;;;;;16.87;60.05;100359.47;146620;583;47012;-76
2023/05/18 01:42:08;;;;;;;;;1.67;1.00;;;;;15.37;58.94;100113.03;146625;571;46011;-77
2023/05/18 01:45:15;;;;;;;;;1.33;1.33;;;;;16.78;59.88;100354.06;146619;633;46016;-78
2023/05/18 01:48:20;;;;;;;;;2.33;1.67;;;;;16.79;60.56;100358.44;146624;573;46021;-78
2023/05/18 01:51:33;;;;;;;;;2.67;2.33;;;;;16.81;59.62;100360.25;146619;570;47012;-79
2023/05/18 01:54:33;;;;;;;;;2.00;2.00;;;;;16.87;60.36;100361.22;146624;569;46010;-79
2023/05/18 01:57:40;;;;;;;;;2.00;1.00;;;;;14.41;60.78;99945.53;146619;567;46016;-78
2023/05/18 02:00:51;;;;;;;;;3.00;2.00;;;;;16.73;59.40;100360.91;146624;569;46010;-75
2023/05/18 02:03:47;;;;;;;;;1.67;0.67;;;;;16.73;61.21;100361.81;146620;570;46013;-72
2023/05/18 02:06:44;;;;;;;;;0.00;0.00;;;;;16.75;60.94;100362.72;146622;582;46031;-73
2023/05/18 02:09:43;;;;;;;;;2.00;2.00;;;;;16.74;61.28;100363.56;146616;566;46014;-71
2023/05/18 02:12:35;;;;;;;;;3.00;1.33;;;;;16.66;61.68;100367.75;146625;570;46012;-71
2023/05/18 02:15:45;;;;;;;;;3.67;3.33;;;;;15.18;60.63;100163.97;146620;595;46016;-71
2023/05/18 02:18:43;;;;;;;;;2.33;2.33;;;;;16.56;61.83;100382.38;146624;570;47010;-71
2023/05/18 02:21:44;;;;;;;;;2.00;1.00;;;;;16.53;61.61;100384.94;146620;591;48012;-72
2023/05/18 02:24:45;;;;;;;;;4.00;2.00;;;;;16.55;62.77;100392.81;146622;596;46010;-81
2023/05/18 02:27:46;;;;;;;;;2.33;2.00;;;;;16.57;61.94;100399.87;146622;658;46012;-74
2023/05/18 02:30:44;;;;;;;;;3.00;2.00;;;;;16.57;61.79;100399.87;146622;646;46020;-73
2023/05/18 02:33:40;;;;;;;;;3.00;2.00;;;;;16.58;62.64;100400.75;146619;654;46017;-75
2023/05/18 02:36:45;;;;;;;;;2.33;2.33;;;;;16.54;62.67;100411.97;146624;643;46010;-75
2023/05/18 02:39:42;;;;;;;;;3.67;2.00;;;;;16.43;62.77;100410.88;146620;651;46016;-75
2023/05/18 02:42:38;;;;;;;;;2.67;2.33;;;;;16.32;62.99;100413.22;146624;579;46010;-75
2023/05/18 02:45:34;;;;;;;;;3.33;3.00;;;;;16.25;63.13;100406.09;146621;682;46012;-75
2023/05/18 02:48:36;;;;;;;;;3.67;3.33;;;;;16.13;63.20;100410.19;146624;589;46011;-75
2023/05/18 02:51:29;;;;;;;;;2.67;2.67;;;;;16.02;64.01;100419.53;146618;645;46012;-73
2023/05/18 02:54:24;;;;;;;;;2.00;2.00;;;;;15.92;64.47;100414.94;146625;663;46010;-73
2023/05/18 02:57:17;;;;;;;;;4.00;2.75;;;;;15.85;64.26;100413.87;146616;635;46017;-76
2023/05/18 03:00:22;;;;;;;;;2.67;2.00;;;;;15.82;64.22;100421.62;146622;573;46020;-75
2023/05/18 03:03:16;;;;;;;;;4.00;3.00;;;;;15.78;65.12;100425.03;146617;692;46017;-76
2023/05/18 03:06:32;;;;;;;;;;;;;;;;;;;;;
2023/05/18 03:09:25;;;;;;;;;1.00;1.00;;;;;15.74;65.50;100430.16;146618;671;46016;-75
2023/05/18 03:12:20;;;;;;;;;5.00;5.00;;;;;15.74;65.05;100433.66;146621;574;46020;-74
2023/05/18 03:15:23;;;;;;;;;4.00;2.00;;;;;15.77;64.29;100445.91;146620;616;47012;-75
2023/05/18 03:18:24;;;;;;;;;2.33;2.33;;;;;15.79;64.49;100442.47;146624;574;47010;-70
2023/05/18 03:21:32;;;;;;;;;3.00;2.00;;;;;15.82;64.41;100444.28;146621;565;46012;-75
2023/05/18 03:24:38;;;;;;;;;4.00;3.00;;;;;15.90;64.43;100455.84;146623;587;46010;-76
2023/05/18 03:27:45;;;;;;;;;4.00;4.00;;;;;15.94;64.34;100452.44;146618;582;46016;-72
2023/05/18 03:30:40;;;;;;;;;2.33;2.33;;;;;15.97;64.64;100459.47;146624;571;46010;-72
2023/05/18 03:33:37;;;;;;;;;3.00;3.00;;;;;15.97;64.67;100468.19;146621;599;46012;-75
2023/05/18 03:36:46;;;;;;;;;6.00;4.50;;;;;15.99;63.90;100468.25;146621;566;46010;-72
2023/05/18 03:39:50;;;;;;;;;3.67;3.67;;;;;15.99;63.73;100466.53;146619;587;46016;-71
2023/05/18 03:42:46;;;;;;;;;4.50;4.50;;;;;16.04;63.91;100467.50;146622;706;46020;-71
2023/05/18 03:45:44;;;;;;;;;5.75;5.00;;;;;16.08;64.90;100471.09;146621;615;46025;-72
2023/05/18 03:48:46;;;;;;;;;7.75;5.50;;;;;13.35;63.66;99992.31;146622;634;46021;-75
2023/05/18 03:51:56;;;;;;;;;7.33;4.00;;;;;13.49;62.96;100015.25;146621;607;46032;-74
2023/05/18 03:55:00;;;;;;;;;5.00;5.00;;;;;16.12;64.56;100467.72;146622;564;46021;-79
2023/05/18 03:58:04;;;;;;;;;;;;;;;;;;;;;
2023/05/18 04:00:59;;;;;;;;;4.00;3.00;;;;;16.20;64.22;100470.50;146623;643;46010;-79
2023/05/18 04:04:01;;;;;;;;;3.00;3.00;;;;;16.29;63.61;100473.34;146617;594;46035;-74
2023/05/18 04:06:59;;;;;;;;;3.00;3.00;;;;;16.35;64.05;100466.53;146621;586;46020;-74
2023/05/18 04:09:57;;;;;;;;;4.33;4.00;;;;;16.46;64.49;100471.13;146619;640;46013;-78
2023/05/18 04:12:57;;;;;;;;;3.67;3.00;;;;;16.56;64.21;100465.25;146622;670;47010;-78
2023/05/18 04:16:03;;;;;;;;;4.00;4.00;;;;;16.70;63.61;100473.41;146619;566;46016;-82
2023/05/18 04:19:13;;;;;;;;;3.00;3.00;;;;;16.85;64.08;100453.75;146622;642;46020;-83
2023/05/18 04:22:10;;;;;;;;;2.00;2.00;;;;;17.04;63.40;100455.00;146618;585;46015;-83
2023/05/18 04:25:05;;;;;;;;;4.33;4.00;;;;;17.25;63.46;100456.28;146623;640;46010;-82
2023/05/18 04:27:59;;;;;;;;;5.00;4.00;;;;;17.46;62.87;100466.31;146619;639;46918;-81
2023/05/18 04:30:56;;;;;;;;;3.00;2.00;;;;;17.66;61.09;100475.44;146624;632;46010;-76
2023/05/18 04:34:04;;;;;;;;;5.00;3.00;;;;;17.86;60.93;100475.81;146621;602;46016;-76
2023/05/18 04:37:04;;;;;;;;;7.00;5.00;;;;;18.03;60.68;100478.72;146620;576;46020;-77
2023/05/18 04:39:57;;;;;;;;;17.25;11.75;;;;;18.13;59.86;100485.00;146617;592;46483;-77
2023/05/18 04:42:58;;;;;;;;;22.75;20.00;;;;;18.24;60.51;100499.19;146616;599;46020;-76
2023/05/18 04:45:56;;;;;;;;;18.25;14.25;;;;;18.39;59.72;100503.81;146609;719;46013;-76
2023/05/18 04:48:50;;;;;;;;;8.25;7.00;;;;;18.55;58.65;100494.44;146615;569;46010;-76
2023/05/18 04:52:09;;;;;;;;;5.75;4.50;;;;;18.76;57.85;100504.41;146616;584;46012;-75
2023/05/18 04:55:14;;;;;;;;;;;;;;;;;;;;;
2023/05/18 04:58:09;;;;;;;;;6.75;4.50;;;;;19.04;57.47;100503.94;146612;631;47916;-78
2023/05/18 05:01:05;;;;;;;;;7.00;7.00;;;;;19.13;57.42;100511.94;146618;586;46021;-78
2023/05/18 05:04:00;;;;;;;;;5.00;5.00;;;;;19.14;56.42;100497.03;146619;593;46012;-79
2023/05/18 05:06:52;;;;;;;;;8.33;5.67;;;;;19.32;57.07;100509.53;146621;571;46012;-79
2023/05/18 05:09:45;;;;;;;;;2.33;2.00;;;;;19.40;56.70;100505.25;146620;569;46918;-77
2023/05/18 05:23:38;;;;;;;;;4.00;4.00;;;;;20.19;55.97;100504.34;146640;564;46010;-80
2023/05/18 05:26:31;;;;;;;;;6.00;3.00;;;;;20.36;54.96;100501.84;146701;569;46013;-84
2023/05/18 05:29:31;;;;;;;;;4.75;2.75;;;;;20.69;54.46;100501.22;146622;702;46012;-84
2023/05/18 05:32:30;;;;;;;;;2.33;2.33;;;;;20.89;53.04;100510.12;146623;589;46020;-84
2023/05/18 05:35:41;;;;;;;;;3.75;3.00;;;;;20.81;53.59;100468.78;146620;590;46012;-85
2023/05/18 05:38:43;;;;;;;;;3.33;2.33;;;;;21.26;53.24;100510.31;146622;604;46020;-77
2023/05/18 05:41:55;;;;;;;;;;;;;;;;;;;;;
2023/05/18 05:44:58;;;;;;;;;4.33;3.33;;;;;21.56;51.51;100501.66;146624;574;46010;-78
2023/05/18 05:47:52;;;;;;;;;1.67;1.67;;;;;21.71;51.75;100503.44;146619;655;46016;-78
2023/05/18 05:50:52;;;;;;;;;2.67;2.67;;;;;21.88;51.21;100500.84;146622;623;47010;-79
2023/05/18 05:53:46;;;;;;;;;2.00;2.00;;;;;22.02;50.28;100499.09;146619;643;46918;-80
2023/05/18 05:56:56;;;;;;;;;2.33;2.33;;;;;22.07;50.90;100489.41;146624;658;46011;-78
2023/05/18 06:00:01;;;;;;;;;3.00;3.00;;;;;22.17;49.35;100500.03;146621;585;46012;-77
2023/05/18 06:03:02;;;;;;;;;3.00;2.00;;;;;22.11;48.74;100501.72;146624;641;47010;-76
2023/05/18 06:05:58;;;;;;;;;2.33;2.33;;;;;22.08;49.74;100498.22;146621;614;46017;-73
2023/05/18 06:08:51;;;;;;;;;2.00;2.00;;;;;22.09;50.02;100500.00;146625;595;45020;-74
2023/05/18 06:11:47;;;;;;;;;3.67;3.67;;;;;22.05;49.46;100506.13;146618;627;47014;-72
2023/05/18 06:14:43;;;;;;;;;2.50;2.50;;;;;21.97;50.14;100500.00;146622;638;46020;-75
2023/05/18 06:17:46;;;;;;;;;4.67;3.33;;;;;21.97;50.34;100511.41;146622;564;47012;-74
2023/05/18 06:20:46;;;;;;;;;3.25;3.00;;;;;22.01;49.61;100507.91;146620;685;46031;-76
2023/05/18 06:24:10;;;;;;;;;;;;;;;;;;;;;
2023/05/18 06:27:08;;;;;;;;;4.00;1.00;;;;;22.03;50.12;100497.34;146623;659;46010;-73
2023/05/18 06:30:06;;;;;;;;;2.67;2.67;;;;;22.06;50.15;100497.34;146620;569;46016;-75
2023/05/18 06:33:03;;;;;;;;;1.67;1.67;;;;;22.10;49.45;100494.69;146624;639;46021;-73
2023/05/18 06:36:04;;;;;;;;;2.67;1.67;;;;;22.18;50.64;100502.69;146619;579;46016;-75
2023/05/18 06:39:15;;;;;;;;;5.00;4.00;;;;;20.56;50.57;100207.91;146624;599;46020;-75
2023/05/18 06:42:12;;;;;;;;;3.00;3.00;;;;;22.36;49.75;100509.69;146709;563;45034;-76
2023/05/18 06:45:18;;;;;;;;;2.67;2.00;;;;;20.79;49.22;100215.81;146627;579;46012;-75
2023/05/18 06:48:16;;;;;;;;;3.00;3.00;;;;;22.53;49.12;100505.28;146630;660;46020;-74
2023/05/18 06:51:25;;;;;;;;;5.50;4.00;;;;;22.67;48.55;100509.66;146624;692;46017;-74
2023/05/18 06:54:29;;;;;;;;;5.33;4.00;;;;;20.98;48.48;100193.00;146631;603;46010;-74
2023/05/18 06:57:35;;;;;;;;;3.00;3.00;;;;;22.90;48.32;100514.94;146622;571;46014;-74
2023/05/18 07:00:27;;;;;;;;;2.00;2.00;;;;;22.97;48.03;100521.97;146627;573;46020;-75
2023/05/18 07:03:31;;;;;;;;;3.00;3.00;;;;;23.07;48.08;100509.59;146624;621;47014;-74
2023/05/18 07:06:32;;;;;;;;;5.33;4.00;;;;;23.15;47.43;100523.69;146631;587;46024;-74
2023/05/18 07:09:33;;;;;;;;;4.00;4.00;;;;;23.15;47.56;100518.41;146626;597;46012;-73
2023/05/18 07:12:28;;;;;;;;;3.00;3.00;;;;;23.24;47.15;100521.91;146630;570;46011;-74
2023/05/18 07:15:24;;;;;;;;;5.00;4.00;;;;;23.40;47.35;100524.47;146624;602;46016;-74
2023/05/18 07:18:25;;;;;;;;;3.50;3.50;;;;;23.54;47.14;100522.63;146629;576;47010;-74
2023/05/18 07:21:33;;;;;;;;;3.33;3.00;;;;;22.15;47.12;100270.25;146626;586;47012;-74
2023/05/18 07:24:38;;;;;;;;;5.00;4.33;;;;;23.73;47.59;100528.72;146630;591;46020;-74
2023/05/18 07:27:38;;;;;;;;;4.67;4.33;;;;;23.92;46.79;100527.72;146624;572;46016;-74
2023/05/18 07:31:15;;;;;;;;;;;;;;;;;;;;;
2023/05/18 07:34:13;;;;;;;;;2.33;2.33;;;;;24.23;46.89;100524.84;146623;586;46017;-74
2023/05/18 07:37:15;;;;;;;;;2.33;2.33;;;;;24.37;46.55;100530.06;146630;586;46010;-74
2023/05/18 07:40:19;;;;;;;;;5.33;4.00;;;;;24.37;46.78;100536.22;146622;638;46014;-75
2023/05/18 07:43:24;;;;;;;;;3.00;3.00;;;;;23.39;46.58;100363.94;146623;605;46011;-76
2023/05/18 07:46:27;;;;;;;;;8.25;6.25;;;;;24.32;45.94;100535.37;146614;692;46016;-75
2023/05/18 07:49:27;;;;;;;;;4.00;4.00;;;;;24.34;47.54;100538.91;146620;597;46021;-75
2023/05/18 07:52:22;;;;;;;;;3.67;3.33;;;;;24.45;47.55;100536.19;146618;582;47012;-79
2023/05/18 07:55:40;;;;;;;;;5.00;4.67;;;;;24.45;46.95;100537.97;146621;581;46010;-77
2023/05/18 07:58:45;;;;;;;;;5.00;5.00;;;;;24.24;46.27;100534.59;146611;667;46044;-77
2023/05/18 08:01:40;;;;;;;;;5.33;4.33;;;;;24.19;48.54;100539.91;146623;594;46031;-84
2023/05/18 08:04:55;;;;;;;;;6.67;5.00;;;;;22.81;49.02;100269.97;146616;588;46017;-83
2023/05/18 08:07:53;;;;;;;;;5.00;4.00;;;;;24.52;47.51;100552.94;146621;595;46020;-77
2023/05/18 08:10:48;;;;;;;;;5.33;4.00;;;;;24.52;46.05;100548.50;146618;597;46915;-78
2023/05/18 08:13:55;;;;;;;;;3.00;2.00;;;;;23.03;47.75;100291.91;146624;564;46010;-77
2023/05/18 08:16:54;;;;;;;;;3.00;3.00;;;;;24.63;45.51;100548.41;146614;591;47016;-78
2023/05/18 08:19:54;;;;;;;;;4.00;4.00;;;;;24.79;45.92;100550.00;146625;610;46011;-74
2023/05/18 08:22:58;;;;;;;;;7.00;5.00;;;;;24.99;45.14;100548.94;146617;641;47012;-74
2023/05/18 08:25:53;;;;;;;;;6.33;4.00;;;;;25.11;45.70;100543.50;146623;627;46015;-76
2023/05/18 08:29:02;;;;;;;;;6.25;5.00;;;;;25.25;46.76;100548.69;146614;608;46034;-79
2023/05/18 08:32:00;;;;;;;;;5.33;4.67;;;;;25.34;45.02;100546.78;146626;578;46010;-74
2023/05/18 08:35:03;;;;;;;;;6.67;5.33;;;;;25.35;44.77;100548.53;146616;579;46017;-72
2023/05/18 08:37:58;;;;;;;;;8.00;4.33;;;;;25.46;43.74;100544.88;146624;569;46029;-78
2023/05/18 08:41:30;;;;;;;;;2.50;2.50;;;;;25.63;44.21;100563.25;146616;638;46017;-81
2023/05/18 08:44:46;;;;;;;;;3.67;2.67;;;;;24.94;45.94;100405.75;146624;600;46010;-75
2023/05/18 08:47:41;;;;;;;;;6.00;3.00;;;;;25.88;42.76;100561.16;146617;581;46016;-78
2023/05/18 08:50:55;;;;;;;;;4.00;3.00;;;;;25.95;43.14;100539.81;146618;609;46020;-70
2023/05/18 08:53:54;;;;;;;;;4.00;4.00;;;;;26.12;41.65;100541.31;146618;609;46012;-77
2023/05/18 08:57:13;;;;;;;;;4.67;4.67;;;;;25.43;43.57;100396.28;146624;645;46020;-81
2023/05/18 09:00:30;;;;;;;;;4.00;4.00;;;;;25.01;44.27;100303.97;146620;578;45912;-78
2023/05/18 09:03:52;;;;;;;;;4.33;4.00;;;;;26.31;44.31;100547.22;146619;615;46022;-80
2023/05/18 09:06:47;;;;;;;;;3.00;3.00;;;;;26.06;42.46;100549.37;146618;581;47038;-85
2023/05/18 09:09:41;;;;;;;;;6.67;6.67;;;;;25.80;43.73;100551.50;146620;599;46020;-80
2023/05/18 09:12:59;;;;;;;;;4.33;3.00;;;;;25.54;44.41;100557.12;146617;587;46017;-75
2023/05/18 09:16:13;;;;;;;;;4.00;4.00;;;;;25.43;45.59;100555.53;146625;595;46010;-79
2023/05/18 09:19:25;;;;;;;;;4.00;4.00;;;;;25.45;45.93;100554.63;146618;582;46017;-79
2023/05/18 09:22:23;;;;;;;;;4.33;4.33;;;;;25.47;43.63;100570.53;146618;630;47010;-80
2023/05/18 09:25:22;;;;;;;;;5.67;5.67;;;;;25.44;44.08;100559.94;146618;586;46017;-80
2023/05/18 09:28:16;;;;;;;;;5.00;3.00;;;;;25.35;42.10;100559.16;146625;602;46020;-79
2023/05/18 09:31:26;;;;;;;;;1.00;1.00;;;;;25.25;44.47;100561.94;146619;580;46026;-80
2023/05/18 09:34:23;;;;;;;;;5.00;5.00;;;;;25.18;44.37;100563.78;146623;623;46010;-79
2023/05/18 09:37:26;;;;;;;;;4.00;3.00;;;;;25.17;43.96;100564.69;146619;563;47012;-80
2023/05/18 09:40:21;;;;;;;;;7.33;5.00;;;;;25.25;45.06;100568.13;146622;612;46030;-80
2023/05/18 09:43:16;;;;;;;;;3.00;2.67;;;;;25.31;44.93;100572.50;146616;576;46016;-80
2023/05/18 09:46:19;;;;;;;;;4.33;3.67;;;;;25.30;46.33;100571.63;146624;665;47010;-79
2023/05/18 09:49:37;;;;;;;;;4.50;4.50;;;;;25.17;46.10;100570.00;146620;610;46012;-80
2023/05/18 09:52:34;;;;;;;;;3.00;3.00;;;;;25.13;42.17;100573.56;146621;682;46020;-81
2023/05/18 09:55:59;;;;;;;;;5.33;3.00;;;;;24.15;42.65;100466.66;146618;578;46012;-81
2023/05/18 09:58:59;;;;;;;;;4.00;4.00;;;;;24.63;42.58;100588.16;146623;643;46020;-80
2023/05/18 10:02:24;;;;;;;;;3.67;3.67;;;;;23.65;42.56;100425.53;146618;570;46017;-79
2023/05/18 10:05:40;;;;;;;;;3.00;3.00;;;;;24.54;43.08;100582.94;146619;620;46020;-80
2023/05/18 10:08:35;;;;;;;;;2.00;2.00;;;;;24.63;42.63;100577.56;146621;608;46012;-78
2023/05/18 10:12:05;;;;;;;;;;;;;;;;;;;;;
2023/05/18 10:15:16;;;;;;;;;3.00;3.00;;;;;24.69;43.33;100576.63;146614;595;47016;-77
2023/05/18 10:18:10;;;;;;;;;6.00;3.00;;;;;24.70;42.74;100576.59;146623;690;46021;-78
2023/05/18 10:21:17;;;;;;;;;2.00;1.67;;;;;23.96;43.96;100420.91;146619;592;46012;-78
2023/05/18 10:25:08;;;;;;;;;4.00;4.00;;;;;24.03;43.61;100412.91;146623;613;46021;-78
2023/05/18 10:28:18;;;;;;;;;5.00;4.33;;;;;25.10;43.18;100574.44;146617;666;47012;-80
2023/05/18 10:31:18;;;;;;;;;5.00;4.00;;;;;25.28;43.06;100572.53;146621;635;46020;-79
2023/05/18 10:34:23;;;;;;;;;6.67;5.33;;;;;25.52;43.31;100568.72;146615;576;47012;-79
2023/05/18 10:37:29;;;;;;;;;4.00;4.00;;;;;25.68;43.88;100564.06;146625;576;46010;-79
2023/05/18 10:40:44;;;;;;;;;7.33;5.67;;;;;25.71;42.05;100561.38;146619;574;46016;-81
2023/05/18 10:43:47;;;;;;;;;5.33;5.00;;;;;25.46;41.67;100568.78;146623;582;46020;-80
2023/05/18 10:46:53;;;;;;;;;5.00;4.00;;;;;25.09;42.95;100566.50;146619;564;46013;-82
2023/05/18 10:50:09;;;;;;;;;5.33;5.33;;;;;25.01;44.12;100563.06;146619;710;46020;-82
2023/05/18 10:53:42;;;;;;;;;7.00;6.33;;;;;23.04;43.97;100267.22;146619;601;46012;-82
2023/05/18 10:56:27;;;;;;;;;7.33;5.33;;;;;24.58;44.26;100574.06;146704;573;46023;-79
2023/05/18 10:59:44;;;;;;;;;5.00;4.67;;;;;24.55;45.36;100587.34;146622;674;46016;-86
2023/05/18 11:02:59;;;;;;;;;5.00;5.00;;;;;24.62;45.15;100586.41;146625;577;46021;-79
2023/05/18 11:06:09;;;;;;;;;8.33;6.33;;;;;24.62;45.83;100583.78;146621;577;46016;-83
2023/05/18 11:09:04;;;;;;;;;5.00;4.33;;;;;24.73;45.99;100578.34;146625;654;46019;-80
2023/05/18 11:12:07;;;;;;;;;7.00;5.00;;;;;24.91;45.62;100567.56;146620;603;46012;-79
2023/05/18 11:15:18;;;;;;;;;7.67;5.00;;;;;24.08;45.88;100388.12;146622;596;46020;-80
2023/05/18 11:18:49;;;;;;;;;6.33;5.00;;;;;25.37;43.14;100579.50;146619;672;46016;-81
2023/05/18 11:22:14;;;;;;;;;4.67;4.67;;;;;25.00;43.65;100508.25;146625;580;46014;-80
2023/05/18 11:25:18;;;;;;;;;4.33;4.00;;;;;25.52;44.42;100574.00;146621;571;45018;-78
2023/05/18 11:28:25;;;;;;;;;5.33;5.00;;;;;25.76;42.39;100578.09;146623;608;46010;-79
2023/05/18 11:31:43;;;;;;;;;5.00;5.00;;;;;25.89;43.77;100576.19;146620;564;46012;-78
2023/05/18 11:35:38;;;;;;;;;;;;;;;;;;;;;
2023/05/18 11:39:05;;;;;;;;;3.67;3.67;;;;;25.73;45.04;100579.06;146617;697;46016;-79
2023/05/18 11:42:29;;;;;;;;;2.00;2.00;;;;;25.60;42.61;100561.50;146625;650;46010;-78
2023/05/18 11:45:37;;;;;;;;;5.00;5.00;;;;;25.62;41.98;100570.34;146617;587;47012;-81
2023/05/18 11:48:47;;;;;;;;;4.67;4.67;;;;;25.60;44.60;100568.59;146625;569;46021;-79
2023/05/18 11:52:07;;;;;;;;;8.00;6.00;;;;;25.66;46.46;100564.06;146620;606;46913;-80
2023/05/18 11:55:27;;;;;;;;;5.33;5.33;;;;;25.64;48.25;100568.53;146626;664;46014;-79
2023/05/18 11:58:36;;;;;;;;;5.33;4.00;;;;;25.63;47.66;100574.72;146621;571;46014;-78
2023/05/18 12:01:42;;;;;;;;;6.67;5.00;;;;;25.60;46.46;100585.41;146622;570;46020;-80
2023/05/18 12:04:43;;;;;;;;;4.33;4.33;;;;;25.49;47.90;100566.09;146620;608;46016;-81
2023/05/18 12:07:57;;;;;;;;;2.00;0.00;;;;;25.52;45.71;100571.34;146622;585;46020;-80
2023/05/18 12:11:00;;;;;;;;;4.67;4.67;;;;;25.47;46.71;100565.22;146621;583;46012;-80
2023/05/18 12:14:09;;;;;;;;;;;;;;;;;;;;;
2023/05/18 12:17:43;;;;;;;;;4.67;4.67;;;;;25.23;47.20;100569.91;146620;593;46016;-78
2023/05/18 12:20:57;;;;;;;;;6.00;4.33;;;;;25.29;46.42;100564.53;146626;593;46010;-80
2023/05/18 12:24:12;;;;;;;;;4.00;4.00;;;;;25.34;44.87;100553.88;146622;574;46012;-79
2023/05/18 12:27:35;;;;;;;;;4.33;3.00;;;;;25.20;41.74;100548.72;146624;586;46010;-80
2023/05/18 12:30:42;;;;;;;;;4.33;4.00;;;;;25.12;40.71;100545.25;146619;564;46033;-80
2023/05/18 12:33:53;;;;;;;;;5.00;4.00;;;;;25.09;42.07;100543.50;146627;567;46010;-76
2023/05/18 12:37:12;;;;;;;;;5.00;4.67;;;;;25.07;41.02;100547.94;146619;580;46016;-76
2023/05/18 12:40:05;;;;;;;;;4.33;4.33;;;;;24.52;42.29;100417.75;146620;595;46020;-76
2023/05/18 12:43:07;;;;;;;;;2.33;2.00;;;;;25.52;43.88;100543.03;146623;602;46012;-77
2023/05/18 12:46:09;;;;;;;;;3.67;3.00;;;;;25.65;42.96;100546.41;146626;649;46021;-77
2023/05/18 12:49:05;;;;;;;;;6.00;4.67;;;;;25.71;42.85;100541.00;146618;595;46016;-76
2023/05/18 12:52:21;;;;;;;;;4.67;4.00;;;;;25.74;43.32;100533.00;146623;650;46020;-75
2023/05/18 12:55:34;;;;;;;;;5.00;5.00;;;;;25.85;43.30;100543.47;146623;575;46012;-77
2023/05/18 12:58:37;;;;;;;;;4.67;4.67;;;;;25.79;42.35;100541.78;146625;583;46020;-77
2023/05/18 13:01:36;;;;;;;;;2.33;2.33;;;;;25.73;43.05;100539.22;146619;580;46014;-75
2023/05/18 13:04:42;;;;;;;;;3.00;3.00;;;;;25.76;44.09;100544.47;146623;563;46010;-77
2023/05/18 13:07:38;;;;;;;;;5.00;4.00;;;;;25.76;42.62;100541.81;146621;595;46016;-76
2023/05/18 13:10:43;;;;;;;;;4.67;4.00;;;;;25.75;43.95;100544.50;146623;591;46020;-76
2023/05/18 13:13:45;;;;;;;;;6.00;2.00;;;;;25.71;43.85;100545.44;146617;607;46016;-75
2023/05/18 13:16:58;;;;;;;;;4.67;4.00;;;;;25.37;44.98;100490.12;146626;573;46014;-74
2023/05/18 13:20:19;;;;;;;;;5.00;4.00;;;;;25.73;45.15;100551.59;146617;587;46016;-76
2023/05/18 13:23:39;;;;;;;;;;;;;;;;;;;;;
2023/05/18 13:26:37;;;;;;;;;6.00;5.33;;;;;25.66;46.38;100560.53;146621;569;46911;-82
2023/05/18 13:29:44;;;;;;;;;4.33;4.33;;;;;25.59;44.85;100575.69;146626;569;46010;-88
2023/05/18 13:32:46;;;;;;;;;5.67;4.33;;;;;25.49;45.43;100576.72;146620;599;46016;-86
2023/05/18 13:36:02;;;;;;;;;7.00;7.00;;;;;25.32;46.35;100571.59;146626;569;46010;-89
2023/05/18 13:39:04;;;;;;;;;7.00;6.00;;;;;25.04;47.13;100541.78;146620;639;46016;-90
2023/05/18 13:42:19;;;;;;;;;6.00;6.00;;;;;25.15;47.43;100577.09;146624;579;46020;-87
2023/05/18 13:45:20;;;;;;;;;8.33;6.33;;;;;25.02;47.67;100578.97;146624;580;47026;-87
2023/05/18 13:48:15;;;;;;;;;6.00;6.00;;;;;24.92;47.44;100579.06;146625;672;46020;-88
2023/05/18 13:51:24;;;;;;;;;8.00;7.00;;;;;24.79;48.28;100573.00;146620;616;46012;-89
2023/05/18 13:54:22;;;;;;;;;5.00;5.00;;;;;24.78;49.09;100588.03;146626;642;45021;-87
2023/05/18 13:57:19;;;;;;;;;8.00;6.33;;;;;24.57;49.30;100588.22;146618;569;46913;-86
2023/05/18 14:00:16;;;;;;;;;5.67;5.00;;;;;24.32;49.53;100590.16;146626;678;46020;-87
2023/05/18 14:03:17;;;;;;;;;5.00;3.33;;;;;24.09;50.54;100588.53;146614;629;47012;-84
2023/05/18 14:06:20;;;;;;;;;4.00;4.00;;;;;23.94;50.43;100586.88;146625;608;46010;-88
2023/05/18 14:09:32;;;;;;;;;5.33;5.00;;;;;23.87;50.46;100590.44;146619;597;46017;-86
2023/05/18 14:12:44;;;;;;;;;4.67;4.67;;;;;23.89;50.31;100588.66;146624;707;46010;-88
2023/05/18 14:16:08;;;;;;;;;4.33;4.33;;;;;23.90;49.88;100556.00;146619;615;46026;-90
2023/05/18 14:19:00;;;;;;;;;5.00;4.33;;;;;24.32;49.31;100577.78;146624;586;46020;-86
2023/05/18 14:21:58;;;;;;;;;4.67;4.67;;;;;24.52;48.59;100576.81;146619;585;46016;-88
2023/05/18 14:24:57;;;;;;;;;6.00;6.00;;;;;24.69;47.31;100581.94;146625;579;46020;-87
2023/05/18 14:27:59;;;;;;;;;4.33;4.33;;;;;24.84;46.66;100579.16;146620;687;47012;-88
2023/05/18 14:30:55;;;;;;;;;6.33;5.33;;;;;24.95;46.98;100573.72;146624;616;46021;-90
2023/05/18 14:33:50;;;;;;;;;5.33;5.33;;;;;24.92;45.59;100569.31;146620;569;46016;-89
2023/05/18 14:36:58;;;;;;;;;;;;;;;;;;;;;
2023/05/18 14:39:57;;;;;;;;;5.67;4.67;;;;;24.84;46.74;100569.41;146617;592;46016;-87
2023/05/18 14:42:52;;;;;;;;;6.00;5.00;;;;;24.84;47.91;100568.53;146624;626;47010;-88
2023/05/18 14:46:02;;;;;;;;;;;;;;;;;;;;;
2023/05/18 14:49:12;;;;;;;;;6.67;5.67;;;;;24.00;48.33;100426.19;146624;570;46031;-85
2023/05/18 14:52:15;;;;;;;;;6.67;5.00;;;;;24.75;49.96;100577.47;146618;615;46013;-87